Asheville, NC (28801)

6:53 AM EST on December 05, 2016 (GMT -0500)
North Asheville | | Change Station

Elev 2224 ft 35.61 °N, 82.55 °W | Updated 3 minutes ago

Mostly Cloudy
Mostly Cloudy
43.9 °F
Feels Like 41 °F
N
5.7
Wind Variable Wind from NW
Gusts 7.8 mph

Today
High -- | Low -- °F
--% Chance of Precip.
Yesterday
High -- | Low -- °F
Precip. -- in
Pressure 30.00 in
Visibility 10.0 miles
Clouds Few 900 ft
Mostly Cloudy 1300 ft
Windchill 41 °F
Dew Point 42 °F
Humidity 93%
Rainfall 0.00 in
Snow Depth Not available.
7:25 AM 5:16 PM
Waxing Crescent, 31% visible
SPECI KAVL 051149Z 34012KT 10SM FEW009 BKN013 07/04 A3000 RMK AO2 RAE27 P0000
Pressure 30.00 in
Visibility 10.0 miles
Clouds Few 900 ft
Mostly Cloudy 1300 ft
Windchill 41 °F
Dew Point 42 °F
Humidity 93%
Rainfall 0.00 in
Snow Depth Not available.
7:25 AM 5:16 PM
Waxing Crescent, 31% visible
SPECI KAVL 051149Z 34012KT 10SM FEW009 BKN013 07/04 A3000 RMK AO2 RAE27 P0000

10-Day Weather Forecast

Almanac

Astronomy

Dec. 05, 2016 Rise Set
Actual Time
Civil Twilight
Nautical Twilight
Astronomical Twilight
Moon
Length of Visible Light
Length of Day
Tomorrow will be .
, % of the Moon is Illuminated

Today's Extremes

State Highs State Lows

Community

WunderPhotos

Upload Photos

1,955,777 photos uploaded!

WunderBlog® & News

Nearby

Air Quality

  Air Quality AQ Index Pollutant
Not available.

Snow Depth

Station Depth Elevation

Earthquake Activity

City Distance Mag. Time & Date
Minimum magnitude displayed is 2.5.

Coastal Water Temperatures

Place Temperature

Stations

Nearby Weather Stations

Station Location Temp. Windchill Dew Point Humidity Wind Precip. Elev Updated Type
                   

Watches & Warnings

There are currently no watches in effect.